sensor_id;sensor_type;location;lat;lon;timestamp;P1;durP1;ratioP1;P2;durP2;ratioP2
40198;SDS011;25906;43.536;26.068;2023-06-22T00:01:29;15.32;;;9.90;;
40198;SDS011;25906;43.536;26.068;2023-06-22T00:04:14;14.13;;;9.68;;
40198;SDS011;25906;43.536;26.068;2023-06-22T00:07:00;12.93;;;9.73;;
40198;SDS011;25906;43.536;26.068;2023-06-22T00:09:45;16.10;;;9.52;;
40198;SDS011;25906;43.536;26.068;2023-06-22T00:12:31;12.70;;;8.95;;
40198;SDS011;25906;43.536;26.068;2023-06-22T00:15:17;15.77;;;9.68;;
40198;SDS011;25906;43.536;26.068;2023-06-22T00:18:02;12.43;;;9.75;;
40198;SDS011;25906;43.536;26.068;2023-06-22T00:20:48;13.05;;;9.75;;
40198;SDS011;25906;43.536;26.068;2023-06-22T00:23:33;15.60;;;10.25;;
40198;SDS011;25906;43.536;26.068;2023-06-22T00:29:05;14.63;;;9.75;;
40198;SDS011;25906;43.536;26.068;2023-06-22T00:31:51;13.38;;;9.02;;
40198;SDS011;25906;43.536;26.068;2023-06-22T00:34:36;15.00;;;9.82;;
40198;SDS011;25906;43.536;26.068;2023-06-22T00:37:22;15.65;;;9.85;;
40198;SDS011;25906;43.536;26.068;2023-06-22T00:40:10;11.65;;;9.85;;
40198;SDS011;25906;43.536;26.068;2023-06-22T00:42:57;11.73;;;8.95;;
40198;SDS011;25906;43.536;26.068;2023-06-22T00:45:42;11.85;;;9.27;;
40198;SDS011;25906;43.536;26.068;2023-06-22T00:48:28;15.43;;;9.07;;
40198;SDS011;25906;43.536;26.068;2023-06-22T00:51:14;11.75;;;8.93;;
40198;SDS011;25906;43.536;26.068;2023-06-22T00:53:59;10.25;;;9.10;;
40198;SDS011;25906;43.536;26.068;2023-06-22T00:56:45;12.25;;;10.05;;
40198;SDS011;25906;43.536;26.068;2023-06-22T00:59:31;11.13;;;9.02;;
40198;SDS011;25906;43.536;26.068;2023-06-22T01:02:17;11.30;;;8.90;;
40198;SDS011;25906;43.536;26.068;2023-06-22T01:05:02;15.07;;;9.38;;
40198;SDS011;25906;43.536;26.068;2023-06-22T01:10:41;12.88;;;9.90;;
40198;SDS011;25906;43.536;26.068;2023-06-22T01:16:55;13.45;;;9.50;;
40198;SDS011;25906;43.536;26.068;2023-06-22T01:19:45;14.98;;;10.48;;
40198;SDS011;25906;43.536;26.068;2023-06-22T01:29:15;16.95;;;9.52;;
40198;SDS011;25906;43.536;26.068;2023-06-22T01:32:02;14.40;;;9.85;;
40198;SDS011;25906;43.536;26.068;2023-06-22T01:34:49;11.48;;;9.70;;
40198;SDS011;25906;43.536;26.068;2023-06-22T01:37:35;14.77;;;10.68;;
40198;SDS011;25906;43.536;26.068;2023-06-22T01:40:22;15.10;;;10.70;;
40198;SDS011;25906;43.536;26.068;2023-06-22T01:43:09;15.52;;;10.02;;
40198;SDS011;25906;43.536;26.068;2023-06-22T01:45:55;12.43;;;10.43;;
40198;SDS011;25906;43.536;26.068;2023-06-22T01:48:42;15.07;;;10.13;;
40198;SDS011;25906;43.536;26.068;2023-06-22T01:51:27;12.63;;;9.93;;
40198;SDS011;25906;43.536;26.068;2023-06-22T01:54:13;15.63;;;9.85;;
40198;SDS011;25906;43.536;26.068;2023-06-22T01:56:58;16.63;;;9.55;;
40198;SDS011;25906;43.536;26.068;2023-06-22T02:00:03;11.10;;;8.82;;
40198;SDS011;25906;43.536;26.068;2023-06-22T02:03:06;16.38;;;9.02;;
40198;SDS011;25906;43.536;26.068;2023-06-22T02:05:56;18.83;;;10.00;;
40198;SDS011;25906;43.536;26.068;2023-06-22T02:08:51;13.20;;;9.93;;
40198;SDS011;25906;43.536;26.068;2023-06-22T02:11:41;14.45;;;8.98;;
40198;SDS011;25906;43.536;26.068;2023-06-22T02:14:28;14.13;;;9.07;;
40198;SDS011;25906;43.536;26.068;2023-06-22T02:20:01;12.88;;;9.85;;
40198;SDS011;25906;43.536;26.068;2023-06-22T02:22:48;11.90;;;8.88;;
40198;SDS011;25906;43.536;26.068;2023-06-22T02:25:34;13.38;;;9.60;;
40198;SDS011;25906;43.536;26.068;2023-06-22T02:28:20;14.52;;;10.27;;
40198;SDS011;25906;43.536;26.068;2023-06-22T02:31:06;13.90;;;9.88;;
40198;SDS011;25906;43.536;26.068;2023-06-22T02:33:51;13.55;;;9.82;;
40198;SDS011;25906;43.536;26.068;2023-06-22T02:36:36;15.13;;;9.75;;
40198;SDS011;25906;43.536;26.068;2023-06-22T02:39:25;15.82;;;9.55;;
40198;SDS011;25906;43.536;26.068;2023-06-22T02:42:11;15.07;;;9.27;;
40198;SDS011;25906;43.536;26.068;2023-06-22T02:44:56;15.65;;;10.20;;
40198;SDS011;25906;43.536;26.068;2023-06-22T02:47:41;14.20;;;10.15;;
40198;SDS011;25906;43.536;26.068;2023-06-22T02:50:27;13.63;;;9.52;;
40198;SDS011;25906;43.536;26.068;2023-06-22T02:53:12;10.85;;;8.38;;
40198;SDS011;25906;43.536;26.068;2023-06-22T02:55:58;11.48;;;9.13;;
40198;SDS011;25906;43.536;26.068;2023-06-22T02:58:43;14.70;;;9.15;;
40198;SDS011;25906;43.536;26.068;2023-06-22T03:01:29;14.80;;;9.38;;
40198;SDS011;25906;43.536;26.068;2023-06-22T03:04:15;12.05;;;9.30;;
40198;SDS011;25906;43.536;26.068;2023-06-22T03:07:01;16.10;;;10.20;;
40198;SDS011;25906;43.536;26.068;2023-06-22T03:12:32;15.18;;;10.02;;
40198;SDS011;25906;43.536;26.068;2023-06-22T03:15:17;19.83;;;11.48;;
40198;SDS011;25906;43.536;26.068;2023-06-22T03:18:04;13.35;;;9.57;;
40198;SDS011;25906;43.536;26.068;2023-06-22T03:20:50;17.02;;;10.90;;
40198;SDS011;25906;43.536;26.068;2023-06-22T03:23:36;16.40;;;9.27;;
40198;SDS011;25906;43.536;26.068;2023-06-22T03:29:08;12.88;;;10.35;;
40198;SDS011;25906;43.536;26.068;2023-06-22T03:31:53;15.68;;;9.57;;
40198;SDS011;25906;43.536;26.068;2023-06-22T03:34:39;15.20;;;10.38;;
40198;SDS011;25906;43.536;26.068;2023-06-22T03:37:24;11.65;;;9.85;;
40198;SDS011;25906;43.536;26.068;2023-06-22T03:40:11;14.75;;;9.63;;
40198;SDS011;25906;43.536;26.068;2023-06-22T03:42:56;12.98;;;9.48;;
40198;SDS011;25906;43.536;26.068;2023-06-22T03:45:42;14.20;;;9.48;;
40198;SDS011;25906;43.536;26.068;2023-06-22T03:48:30;14.65;;;9.43;;
40198;SDS011;25906;43.536;26.068;2023-06-22T03:51:15;24.02;;;10.05;;
40198;SDS011;25906;43.536;26.068;2023-06-22T03:54:01;13.25;;;9.77;;
40198;SDS011;25906;43.536;26.068;2023-06-22T03:56:46;11.40;;;9.00;;
40198;SDS011;25906;43.536;26.068;2023-06-22T03:59:31;11.88;;;9.32;;
40198;SDS011;25906;43.536;26.068;2023-06-22T04:05:02;12.65;;;8.38;;
40198;SDS011;25906;43.536;26.068;2023-06-22T04:07:48;12.85;;;8.95;;
40198;SDS011;25906;43.536;26.068;2023-06-22T04:10:33;10.15;;;8.70;;
40198;SDS011;25906;43.536;26.068;2023-06-22T04:16:04;11.25;;;8.93;;
40198;SDS011;25906;43.536;26.068;2023-06-22T04:18:50;10.70;;;8.85;;
40198;SDS011;25906;43.536;26.068;2023-06-22T04:21:35;11.13;;;9.27;;
40198;SDS011;25906;43.536;26.068;2023-06-22T04:24:22;9.88;;;8.57;;
40198;SDS011;25906;43.536;26.068;2023-06-22T04:27:07;13.70;;;9.13;;
40198;SDS011;25906;43.536;26.068;2023-06-22T04:29:53;12.98;;;8.95;;
40198;SDS011;25906;43.536;26.068;2023-06-22T04:32:38;12.75;;;9.75;;
40198;SDS011;25906;43.536;26.068;2023-06-22T04:35:24;14.23;;;9.07;;
40198;SDS011;25906;43.536;26.068;2023-06-22T04:38:11;13.70;;;9.57;;
40198;SDS011;25906;43.536;26.068;2023-06-22T04:40:58;12.65;;;9.00;;
40198;SDS011;25906;43.536;26.068;2023-06-22T04:43:43;17.55;;;9.10;;
40198;SDS011;25906;43.536;26.068;2023-06-22T04:46:29;13.43;;;8.68;;
40198;SDS011;25906;43.536;26.068;2023-06-22T04:49:14;11.00;;;8.20;;
40198;SDS011;25906;43.536;26.068;2023-06-22T04:52:00;12.25;;;9.18;;
40198;SDS011;25906;43.536;26.068;2023-06-22T04:54:47;13.00;;;8.52;;
40198;SDS011;25906;43.536;26.068;2023-06-22T04:57:40;11.90;;;8.40;;
40198;SDS011;25906;43.536;26.068;2023-06-22T05:00:25;12.85;;;9.45;;
40198;SDS011;25906;43.536;26.068;2023-06-22T05:05:56;12.57;;;9.10;;
40198;SDS011;25906;43.536;26.068;2023-06-22T05:08:42;17.70;;;7.88;;
40198;SDS011;25906;43.536;26.068;2023-06-22T05:11:28;10.75;;;8.50;;
40198;SDS011;25906;43.536;26.068;2023-06-22T05:14:13;12.38;;;8.07;;
40198;SDS011;25906;43.536;26.068;2023-06-22T05:19:48;12.20;;;8.38;;
40198;SDS011;25906;43.536;26.068;2023-06-22T05:22:34;12.02;;;8.63;;
40198;SDS011;25906;43.536;26.068;2023-06-22T05:25:19;10.00;;;8.43;;
40198;SDS011;25906;43.536;26.068;2023-06-22T05:28:05;14.30;;;8.80;;
40198;SDS011;25906;43.536;26.068;2023-06-22T05:30:50;9.02;;;8.13;;
40198;SDS011;25906;43.536;26.068;2023-06-22T05:33:36;11.73;;;8.23;;
40198;SDS011;25906;43.536;26.068;2023-06-22T05:36:21;10.48;;;7.70;;
40198;SDS011;25906;43.536;26.068;2023-06-22T05:39:11;8.25;;;7.35;;
40198;SDS011;25906;43.536;26.068;2023-06-22T05:42:00;9.77;;;7.72;;
40198;SDS011;25906;43.536;26.068;2023-06-22T05:44:45;12.75;;;8.63;;
40198;SDS011;25906;43.536;26.068;2023-06-22T05:47:32;10.95;;;8.05;;
40198;SDS011;25906;43.536;26.068;2023-06-22T05:50:17;20.52;;;7.93;;
40198;SDS011;25906;43.536;26.068;2023-06-22T05:53:02;8.88;;;7.38;;
40198;SDS011;25906;43.536;26.068;2023-06-22T05:55:48;10.07;;;7.82;;
40198;SDS011;25906;43.536;26.068;2023-06-22T06:01:20;12.93;;;8.05;;
40198;SDS011;25906;43.536;26.068;2023-06-22T06:04:06;13.23;;;8.30;;
40198;SDS011;25906;43.536;26.068;2023-06-22T06:06:54;9.88;;;7.68;;
40198;SDS011;25906;43.536;26.068;2023-06-22T06:09:39;9.68;;;7.55;;
40198;SDS011;25906;43.536;26.068;2023-06-22T06:12:25;8.95;;;7.13;;
40198;SDS011;25906;43.536;26.068;2023-06-22T06:15:10;11.77;;;6.85;;
40198;SDS011;25906;43.536;26.068;2023-06-22T06:17:56;13.43;;;8.07;;
40198;SDS011;25906;43.536;26.068;2023-06-22T06:20:41;11.75;;;7.50;;
40198;SDS011;25906;43.536;26.068;2023-06-22T06:23:26;9.55;;;7.20;;
40198;SDS011;25906;43.536;26.068;2023-06-22T06:26:12;8.10;;;7.30;;
40198;SDS011;25906;43.536;26.068;2023-06-22T06:28:58;10.95;;;7.05;;
40198;SDS011;25906;43.536;26.068;2023-06-22T06:31:45;8.07;;;6.68;;
40198;SDS011;25906;43.536;26.068;2023-06-22T06:34:30;8.75;;;7.03;;
40198;SDS011;25906;43.536;26.068;2023-06-22T06:37:16;8.57;;;6.05;;
40198;SDS011;25906;43.536;26.068;2023-06-22T06:40:03;7.03;;;6.05;;
40198;SDS011;25906;43.536;26.068;2023-06-22T06:42:55;9.00;;;6.60;;
40198;SDS011;25906;43.536;26.068;2023-06-22T06:45:40;13.50;;;7.53;;
40198;SDS011;25906;43.536;26.068;2023-06-22T06:48:26;8.20;;;6.70;;
40198;SDS011;25906;43.536;26.068;2023-06-22T06:51:11;6.95;;;6.25;;
40198;SDS011;25906;43.536;26.068;2023-06-22T06:53:56;6.55;;;5.63;;
40198;SDS011;25906;43.536;26.068;2023-06-22T06:56:42;8.95;;;5.22;;
40198;SDS011;25906;43.536;26.068;2023-06-22T06:59:33;6.60;;;5.03;;
40198;SDS011;25906;43.536;26.068;2023-06-22T07:02:18;6.75;;;6.00;;
40198;SDS011;25906;43.536;26.068;2023-06-22T07:05:04;6.35;;;4.97;;
40198;SDS011;25906;43.536;26.068;2023-06-22T07:07:50;6.68;;;5.15;;
40198;SDS011;25906;43.536;26.068;2023-06-22T07:10:35;5.97;;;5.38;;
40198;SDS011;25906;43.536;26.068;2023-06-22T07:16:06;6.95;;;5.60;;
40198;SDS011;25906;43.536;26.068;2023-06-22T07:18:52;5.38;;;4.88;;
40198;SDS011;25906;43.536;26.068;2023-06-22T07:21:37;6.28;;;5.68;;
40198;SDS011;25906;43.536;26.068;2023-06-22T07:24:23;13.23;;;5.50;;
40198;SDS011;25906;43.536;26.068;2023-06-22T07:27:09;6.57;;;5.45;;
40198;SDS011;25906;43.536;26.068;2023-06-22T07:29:57;13.52;;;5.47;;
40198;SDS011;25906;43.536;26.068;2023-06-22T07:32:42;9.82;;;5.57;;
40198;SDS011;25906;43.536;26.068;2023-06-22T07:35:28;9.00;;;5.60;;
40198;SDS011;25906;43.536;26.068;2023-06-22T07:38:14;6.43;;;5.70;;
40198;SDS011;25906;43.536;26.068;2023-06-22T07:41:00;6.38;;;5.38;;
40198;SDS011;25906;43.536;26.068;2023-06-22T07:43:50;6.18;;;5.40;;
40198;SDS011;25906;43.536;26.068;2023-06-22T07:46:36;10.32;;;5.20;;
40198;SDS011;25906;43.536;26.068;2023-06-22T07:52:07;8.43;;;5.32;;
40198;SDS011;25906;43.536;26.068;2023-06-22T07:54:52;6.97;;;5.57;;
40198;SDS011;25906;43.536;26.068;2023-06-22T07:57:38;6.88;;;5.07;;
40198;SDS011;25906;43.536;26.068;2023-06-22T08:00:23;6.88;;;6.03;;
40198;SDS011;25906;43.536;26.068;2023-06-22T08:03:09;6.45;;;5.07;;
40198;SDS011;25906;43.536;26.068;2023-06-22T08:08:40;9.40;;;6.05;;
40198;SDS011;25906;43.536;26.068;2023-06-22T08:11:25;6.28;;;5.60;;
40198;SDS011;25906;43.536;26.068;2023-06-22T08:14:11;8.05;;;4.80;;
40198;SDS011;25906;43.536;26.068;2023-06-22T08:19:42;6.50;;;5.03;;
40198;SDS011;25906;43.536;26.068;2023-06-22T08:25:12;5.80;;;5.20;;
40198;SDS011;25906;43.536;26.068;2023-06-22T08:27:58;6.53;;;5.60;;
40198;SDS011;25906;43.536;26.068;2023-06-22T08:33:29;7.80;;;5.47;;
40198;SDS011;25906;43.536;26.068;2023-06-22T08:36:15;7.30;;;5.53;;
40198;SDS011;25906;43.536;26.068;2023-06-22T08:39:01;9.93;;;5.82;;
40198;SDS011;25906;43.536;26.068;2023-06-22T08:41:47;6.25;;;5.13;;
40198;SDS011;25906;43.536;26.068;2023-06-22T08:44:33;5.80;;;5.20;;
40198;SDS011;25906;43.536;26.068;2023-06-22T08:50:05;8.43;;;5.93;;
40198;SDS011;25906;43.536;26.068;2023-06-22T08:52:52;9.25;;;5.90;;
40198;SDS011;25906;43.536;26.068;2023-06-22T08:58:23;7.82;;;5.82;;
40198;SDS011;25906;43.536;26.068;2023-06-22T09:01:09;8.55;;;5.30;;
40198;SDS011;25906;43.536;26.068;2023-06-22T09:06:40;6.30;;;5.70;;
40198;SDS011;25906;43.536;26.068;2023-06-22T09:09:30;6.72;;;6.03;;
40198;SDS011;25906;43.536;26.068;2023-06-22T09:15:01;6.37;;;5.60;;
40198;SDS011;25906;43.536;26.068;2023-06-22T09:17:47;10.07;;;6.10;;
40198;SDS011;25906;43.536;26.068;2023-06-22T09:23:18;14.90;;;5.82;;
40198;SDS011;25906;43.536;26.068;2023-06-22T09:26:04;6.38;;;5.68;;
40198;SDS011;25906;43.536;26.068;2023-06-22T09:28:50;5.85;;;5.13;;
40198;SDS011;25906;43.536;26.068;2023-06-22T09:31:36;6.07;;;5.47;;
40198;SDS011;25906;43.536;26.068;2023-06-22T09:34:21;6.22;;;5.63;;
40198;SDS011;25906;43.536;26.068;2023-06-22T09:39:52;6.00;;;5.20;;
40198;SDS011;25906;43.536;26.068;2023-06-22T09:45:23;7.87;;;5.50;;
40198;SDS011;25906;43.536;26.068;2023-06-22T09:50:55;8.32;;;5.45;;
40198;SDS011;25906;43.536;26.068;2023-06-22T09:53:40;5.97;;;5.20;;
40198;SDS011;25906;43.536;26.068;2023-06-22T09:56:26;8.18;;;5.70;;
40198;SDS011;25906;43.536;26.068;2023-06-22T09:59:14;6.60;;;5.50;;
40198;SDS011;25906;43.536;26.068;2023-06-22T10:02:00;7.45;;;5.53;;
40198;SDS011;25906;43.536;26.068;2023-06-22T10:07:31;11.07;;;5.78;;
40198;SDS011;25906;43.536;26.068;2023-06-22T10:13:08;8.38;;;5.95;;
40198;SDS011;25906;43.536;26.068;2023-06-22T10:15:57;7.90;;;5.38;;
40198;SDS011;25906;43.536;26.068;2023-06-22T10:21:28;7.65;;;5.70;;
40198;SDS011;25906;43.536;26.068;2023-06-22T10:24:14;6.70;;;5.70;;
40198;SDS011;25906;43.536;26.068;2023-06-22T10:26:59;6.45;;;5.82;;
40198;SDS011;25906;43.536;26.068;2023-06-22T10:32:30;6.50;;;5.88;;
40198;SDS011;25906;43.536;26.068;2023-06-22T10:38:01;6.03;;;5.43;;
40198;SDS011;25906;43.536;26.068;2023-06-22T10:43:31;6.25;;;5.57;;
40198;SDS011;25906;43.536;26.068;2023-06-22T10:46:17;6.80;;;6.10;;
40198;SDS011;25906;43.536;26.068;2023-06-22T10:49:02;7.85;;;5.88;;
40198;SDS011;25906;43.536;26.068;2023-06-22T10:51:48;6.13;;;5.50;;
40198;SDS011;25906;43.536;26.068;2023-06-22T10:57:19;7.97;;;6.30;;
40198;SDS011;25906;43.536;26.068;2023-06-22T11:00:04;6.03;;;5.38;;
40198;SDS011;25906;43.536;26.068;2023-06-22T11:02:51;6.15;;;5.30;;
40198;SDS011;25906;43.536;26.068;2023-06-22T11:05:36;6.93;;;6.22;;
40198;SDS011;25906;43.536;26.068;2023-06-22T11:08:22;7.40;;;6.10;;
40198;SDS011;25906;43.536;26.068;2023-06-22T11:11:07;8.23;;;5.88;;
40198;SDS011;25906;43.536;26.068;2023-06-22T11:13:53;6.97;;;6.10;;
40198;SDS011;25906;43.536;26.068;2023-06-22T11:19:23;6.20;;;5.60;;
40198;SDS011;25906;43.536;26.068;2023-06-22T11:24:54;8.25;;;5.18;;
40198;SDS011;25906;43.536;26.068;2023-06-22T11:30:25;9.60;;;6.10;;
40198;SDS011;25906;43.536;26.068;2023-06-22T11:35:55;7.88;;;5.97;;
40198;SDS011;25906;43.536;26.068;2023-06-22T11:38:41;7.45;;;5.68;;
40198;SDS011;25906;43.536;26.068;2023-06-22T11:41:27;6.63;;;5.60;;
40198;SDS011;25906;43.536;26.068;2023-06-22T11:44:13;7.95;;;5.60;;
40198;SDS011;25906;43.536;26.068;2023-06-22T11:49:45;10.07;;;6.20;;
40198;SDS011;25906;43.536;26.068;2023-06-22T11:52:31;6.55;;;5.88;;
40198;SDS011;25906;43.536;26.068;2023-06-22T11:55:18;8.57;;;5.95;;
40198;SDS011;25906;43.536;26.068;2023-06-22T12:00:50;6.88;;;6.18;;
40198;SDS011;25906;43.536;26.068;2023-06-22T12:06:50;7.75;;;6.45;;
40198;SDS011;25906;43.536;26.068;2023-06-22T12:12:21;10.13;;;6.65;;
40198;SDS011;25906;43.536;26.068;2023-06-22T12:15:06;11.60;;;6.22;;
40198;SDS011;25906;43.536;26.068;2023-06-22T12:17:53;8.43;;;6.43;;
40198;SDS011;25906;43.536;26.068;2023-06-22T12:20:38;8.60;;;6.78;;
40198;SDS011;25906;43.536;26.068;2023-06-22T12:26:09;9.63;;;6.28;;
40198;SDS011;25906;43.536;26.068;2023-06-22T12:31:40;7.57;;;5.93;;
40198;SDS011;25906;43.536;26.068;2023-06-22T12:34:26;9.57;;;6.28;;
40198;SDS011;25906;43.536;26.068;2023-06-22T12:39:57;12.00;;;6.10;;
40198;SDS011;25906;43.536;26.068;2023-06-22T12:45:28;9.80;;;6.63;;
40198;SDS011;25906;43.536;26.068;2023-06-22T12:48:16;8.07;;;6.50;;
40198;SDS011;25906;43.536;26.068;2023-06-22T12:53:47;10.02;;;6.70;;
40198;SDS011;25906;43.536;26.068;2023-06-22T12:59:18;8.27;;;6.93;;
40198;SDS011;25906;43.536;26.068;2023-06-22T13:02:03;8.48;;;7.20;;
40198;SDS011;25906;43.536;26.068;2023-06-22T13:04:49;7.82;;;6.82;;
40198;SDS011;25906;43.536;26.068;2023-06-22T13:10:20;8.18;;;6.57;;
40198;SDS011;25906;43.536;26.068;2023-06-22T13:13:05;8.57;;;7.07;;
40198;SDS011;25906;43.536;26.068;2023-06-22T13:15:50;11.07;;;6.95;;
40198;SDS011;25906;43.536;26.068;2023-06-22T13:18:37;8.40;;;7.40;;
40198;SDS011;25906;43.536;26.068;2023-06-22T13:24:08;7.55;;;6.45;;
40198;SDS011;25906;43.536;26.068;2023-06-22T13:29:40;6.90;;;6.20;;
40198;SDS011;25906;43.536;26.068;2023-06-22T13:32:25;7.82;;;7.03;;
40198;SDS011;25906;43.536;26.068;2023-06-22T13:35:10;8.82;;;6.80;;
40198;SDS011;25906;43.536;26.068;2023-06-22T13:37:56;9.35;;;6.10;;
40198;SDS011;25906;43.536;26.068;2023-06-22T13:43:27;7.40;;;6.70;;
40198;SDS011;25906;43.536;26.068;2023-06-22T13:48:58;8.20;;;6.60;;
40198;SDS011;25906;43.536;26.068;2023-06-22T13:51:43;8.00;;;6.68;;
40198;SDS011;25906;43.536;26.068;2023-06-22T13:54:28;8.90;;;7.15;;
40198;SDS011;25906;43.536;26.068;2023-06-22T13:59:59;10.50;;;6.93;;
40198;SDS011;25906;43.536;26.068;2023-06-22T14:05:30;8.68;;;6.90;;
40198;SDS011;25906;43.536;26.068;2023-06-22T14:08:16;8.38;;;7.10;;
40198;SDS011;25906;43.536;26.068;2023-06-22T14:11:01;7.43;;;6.35;;
40198;SDS011;25906;43.536;26.068;2023-06-22T14:13:46;8.70;;;7.18;;
40198;SDS011;25906;43.536;26.068;2023-06-22T14:19:17;9.07;;;7.50;;
40198;SDS011;25906;43.536;26.068;2023-06-22T14:22:03;8.07;;;7.05;;
40198;SDS011;25906;43.536;26.068;2023-06-22T14:24:49;8.73;;;7.10;;
40198;SDS011;25906;43.536;26.068;2023-06-22T14:27:35;9.40;;;6.80;;
40198;SDS011;25906;43.536;26.068;2023-06-22T14:30:20;10.20;;;6.50;;
40198;SDS011;25906;43.536;26.068;2023-06-22T14:33:05;8.57;;;6.30;;
40198;SDS011;25906;43.536;26.068;2023-06-22T14:38:36;7.90;;;6.45;;
40198;SDS011;25906;43.536;26.068;2023-06-22T14:44:07;7.60;;;6.78;;
40198;SDS011;25906;43.536;26.068;2023-06-22T14:46:52;7.78;;;6.60;;
40198;SDS011;25906;43.536;26.068;2023-06-22T14:49:38;8.98;;;6.85;;
40198;SDS011;25906;43.536;26.068;2023-06-22T14:52:23;8.75;;;6.72;;
40198;SDS011;25906;43.536;26.068;2023-06-22T14:55:08;7.50;;;6.70;;
40198;SDS011;25906;43.536;26.068;2023-06-22T14:57:54;7.57;;;6.45;;
40198;SDS011;25906;43.536;26.068;2023-06-22T15:03:25;7.17;;;6.40;;
40198;SDS011;25906;43.536;26.068;2023-06-22T15:06:13;9.30;;;6.85;;
40198;SDS011;25906;43.536;26.068;2023-06-22T15:08:59;7.45;;;6.68;;
40198;SDS011;25906;43.536;26.068;2023-06-22T15:14:30;7.32;;;6.60;;
40198;SDS011;25906;43.536;26.068;2023-06-22T15:20:01;8.25;;;5.93;;
40198;SDS011;25906;43.536;26.068;2023-06-22T15:22:48;7.38;;;6.53;;
40198;SDS011;25906;43.536;26.068;2023-06-22T15:25:33;8.77;;;7.18;;
40198;SDS011;25906;43.536;26.068;2023-06-22T15:31:04;7.45;;;6.65;;
40198;SDS011;25906;43.536;26.068;2023-06-22T15:33:49;11.00;;;6.78;;
40198;SDS011;25906;43.536;26.068;2023-06-22T15:36:35;9.52;;;6.35;;
40198;SDS011;25906;43.536;26.068;2023-06-22T15:39:20;8.38;;;7.07;;
40198;SDS011;25906;43.536;26.068;2023-06-22T15:42:08;7.28;;;6.28;;
40198;SDS011;25906;43.536;26.068;2023-06-22T15:47:38;7.78;;;6.40;;
40198;SDS011;25906;43.536;26.068;2023-06-22T15:50:24;9.15;;;6.43;;
40198;SDS011;25906;43.536;26.068;2023-06-22T15:53:09;6.85;;;5.93;;
40198;SDS011;25906;43.536;26.068;2023-06-22T15:55:55;9.02;;;6.65;;
40198;SDS011;25906;43.536;26.068;2023-06-22T15:58:40;10.60;;;6.90;;
40198;SDS011;25906;43.536;26.068;2023-06-22T16:01:25;8.75;;;7.32;;
40198;SDS011;25906;43.536;26.068;2023-06-22T16:04:11;7.95;;;7.15;;
40198;SDS011;25906;43.536;26.068;2023-06-22T16:06:56;9.25;;;6.30;;
40198;SDS011;25906;43.536;26.068;2023-06-22T16:09:42;7.53;;;6.78;;
40198;SDS011;25906;43.536;26.068;2023-06-22T16:12:27;7.60;;;6.68;;
40198;SDS011;25906;43.536;26.068;2023-06-22T16:15:14;10.32;;;6.72;;
40198;SDS011;25906;43.536;26.068;2023-06-22T16:20:44;7.45;;;6.63;;
40198;SDS011;25906;43.536;26.068;2023-06-22T16:23:31;8.25;;;6.47;;
40198;SDS011;25906;43.536;26.068;2023-06-22T16:26:16;10.60;;;6.68;;
40198;SDS011;25906;43.536;26.068;2023-06-22T16:31:47;7.22;;;6.28;;
40198;SDS011;25906;43.536;26.068;2023-06-22T16:34:32;8.60;;;6.60;;
40198;SDS011;25906;43.536;26.068;2023-06-22T16:37:18;8.07;;;6.55;;
40198;SDS011;25906;43.536;26.068;2023-06-22T16:42:49;7.22;;;6.35;;
40198;SDS011;25906;43.536;26.068;2023-06-22T16:45:36;8.13;;;7.20;;
40198;SDS011;25906;43.536;26.068;2023-06-22T16:48:22;8.75;;;7.38;;
40198;SDS011;25906;43.536;26.068;2023-06-22T16:51:07;7.03;;;6.35;;
40198;SDS011;25906;43.536;26.068;2023-06-22T16:56:40;8.40;;;7.43;;
40198;SDS011;25906;43.536;26.068;2023-06-22T16:59:25;8.50;;;6.55;;
40198;SDS011;25906;43.536;26.068;2023-06-22T17:02:17;7.80;;;6.82;;
40198;SDS011;25906;43.536;26.068;2023-06-22T17:05:04;9.18;;;7.20;;
40198;SDS011;25906;43.536;26.068;2023-06-22T17:07:55;9.57;;;7.13;;
40198;SDS011;25906;43.536;26.068;2023-06-22T17:10:43;8.48;;;7.22;;
40198;SDS011;25906;43.536;26.068;2023-06-22T17:13:28;11.55;;;7.15;;
40198;SDS011;25906;43.536;26.068;2023-06-22T17:16:13;11.40;;;7.57;;
40198;SDS011;25906;43.536;26.068;2023-06-22T17:18:59;8.35;;;7.20;;
40198;SDS011;25906;43.536;26.068;2023-06-22T17:21:50;9.68;;;7.15;;
40198;SDS011;25906;43.536;26.068;2023-06-22T17:24:36;12.85;;;7.80;;
40198;SDS011;25906;43.536;26.068;2023-06-22T17:27:28;14.55;;;8.30;;
40198;SDS011;25906;43.536;26.068;2023-06-22T17:30:14;10.82;;;8.55;;
40198;SDS011;25906;43.536;26.068;2023-06-22T17:33:02;11.48;;;7.35;;
40198;SDS011;25906;43.536;26.068;2023-06-22T17:38:33;9.18;;;6.97;;
40198;SDS011;25906;43.536;26.068;2023-06-22T17:41:21;9.55;;;7.93;;
40198;SDS011;25906;43.536;26.068;2023-06-22T17:44:06;12.23;;;7.85;;
40198;SDS011;25906;43.536;26.068;2023-06-22T17:46:53;12.07;;;7.72;;
40198;SDS011;25906;43.536;26.068;2023-06-22T17:49:40;10.18;;;7.93;;
40198;SDS011;25906;43.536;26.068;2023-06-22T17:52:26;13.95;;;8.07;;
40198;SDS011;25906;43.536;26.068;2023-06-22T17:55:11;10.27;;;6.25;;
40198;SDS011;25906;43.536;26.068;2023-06-22T17:57:57;10.65;;;9.02;;
40198;SDS011;25906;43.536;26.068;2023-06-22T18:00:44;11.60;;;10.25;;
40198;SDS011;25906;43.536;26.068;2023-06-22T18:03:32;11.60;;;8.82;;
40198;SDS011;25906;43.536;26.068;2023-06-22T18:06:18;14.02;;;9.13;;
40198;SDS011;25906;43.536;26.068;2023-06-22T18:09:05;13.48;;;7.93;;
40198;SDS011;25906;43.536;26.068;2023-06-22T18:11:51;8.23;;;7.03;;
40198;SDS011;25906;43.536;26.068;2023-06-22T18:14:41;8.95;;;7.18;;
40198;SDS011;25906;43.536;26.068;2023-06-22T18:17:26;9.25;;;7.15;;
40198;SDS011;25906;43.536;26.068;2023-06-22T18:20:12;11.43;;;6.88;;
40198;SDS011;25906;43.536;26.068;2023-06-22T18:22:57;10.75;;;6.82;;
40198;SDS011;25906;43.536;26.068;2023-06-22T18:25:43;14.88;;;8.00;;
40198;SDS011;25906;43.536;26.068;2023-06-22T18:28:30;13.30;;;8.27;;
40198;SDS011;25906;43.536;26.068;2023-06-22T18:31:18;10.15;;;7.70;;
40198;SDS011;25906;43.536;26.068;2023-06-22T18:34:06;14.70;;;8.27;;
40198;SDS011;25906;43.536;26.068;2023-06-22T18:36:52;13.15;;;8.23;;
40198;SDS011;25906;43.536;26.068;2023-06-22T18:39:42;9.50;;;7.80;;
40198;SDS011;25906;43.536;26.068;2023-06-22T18:42:29;10.00;;;7.93;;
40198;SDS011;25906;43.536;26.068;2023-06-22T18:45:21;15.73;;;7.68;;
40198;SDS011;25906;43.536;26.068;2023-06-22T18:48:08;9.70;;;7.88;;
40198;SDS011;25906;43.536;26.068;2023-06-22T18:50:59;16.08;;;7.20;;
40198;SDS011;25906;43.536;26.068;2023-06-22T18:54:02;8.20;;;7.40;;
40198;SDS011;25906;43.536;26.068;2023-06-22T18:56:56;9.73;;;7.22;;
40198;SDS011;25906;43.536;26.068;2023-06-22T18:59:46;9.68;;;7.82;;
40198;SDS011;25906;43.536;26.068;2023-06-22T19:05:41;10.32;;;7.30;;
40198;SDS011;25906;43.536;26.068;2023-06-22T19:08:27;11.32;;;7.22;;
40198;SDS011;25906;43.536;26.068;2023-06-22T19:11:12;10.32;;;8.40;;
40198;SDS011;25906;43.536;26.068;2023-06-22T19:13:58;11.27;;;7.70;;
40198;SDS011;25906;43.536;26.068;2023-06-22T19:16:45;10.23;;;7.47;;
40198;SDS011;25906;43.536;26.068;2023-06-22T19:19:35;11.00;;;8.48;;
40198;SDS011;25906;43.536;26.068;2023-06-22T19:22:23;9.60;;;7.13;;
40198;SDS011;25906;43.536;26.068;2023-06-22T19:25:28;10.13;;;7.80;;
40198;SDS011;25906;43.536;26.068;2023-06-22T19:28:20;9.00;;;7.68;;
40198;SDS011;25906;43.536;26.068;2023-06-22T19:31:05;8.57;;;7.68;;
40198;SDS011;25906;43.536;26.068;2023-06-22T19:34:03;10.35;;;7.32;;